createdAt,value
2023-05-09T00:00:58.796Z,423.00
2023-05-09T00:01:58.839Z,400.00
2023-05-09T00:02:58.853Z,400.00
2023-05-09T00:03:59.750Z,400.00
2023-05-09T00:04:58.817Z,400.00
2023-05-09T00:05:58.830Z,400.00
2023-05-09T00:06:58.847Z,433.00
2023-05-09T00:07:58.874Z,458.00
2023-05-09T00:08:58.858Z,493.00
2023-05-09T00:09:58.872Z,500.00
2023-05-09T00:10:59.000Z,500.00
2023-05-09T00:11:58.882Z,501.00
2023-05-09T00:12:58.991Z,501.00
2023-05-09T00:13:58.904Z,500.00
2023-05-09T00:14:58.913Z,500.00
2023-05-09T00:15:58.932Z,500.00
2023-05-09T00:16:58.982Z,501.00
2023-05-09T00:17:59.003Z,501.00
2023-05-09T00:18:58.961Z,500.00
2023-05-09T00:19:58.969Z,500.00
2023-05-09T00:20:58.986Z,501.00
2023-05-09T00:21:58.996Z,502.00
2023-05-09T00:22:59.027Z,502.00
2023-05-09T00:23:59.015Z,504.00
2023-05-09T00:24:59.043Z,501.00
2023-05-09T00:25:59.043Z,501.00
2023-05-09T00:26:59.177Z,501.00
2023-05-09T00:27:59.081Z,502.00
2023-05-09T00:28:59.086Z,501.00
2023-05-09T00:29:59.088Z,500.00
2023-05-09T00:30:59.098Z,501.00
2023-05-09T00:31:59.164Z,502.00
2023-05-09T00:32:59.164Z,502.00
2023-05-09T00:33:59.132Z,501.00
2023-05-09T00:34:59.149Z,502.00
2023-05-09T00:35:59.160Z,501.00
2023-05-09T00:36:59.175Z,502.00
2023-05-09T00:37:59.248Z,503.00
2023-05-09T00:38:59.270Z,503.00
2023-05-09T00:39:59.321Z,501.00
2023-05-09T00:40:59.361Z,504.00
2023-05-09T00:41:59.422Z,504.00
2023-05-09T00:42:59.573Z,501.00
2023-05-09T00:43:59.493Z,501.00
2023-05-09T00:44:59.546Z,500.00
2023-05-09T00:45:59.625Z,501.00
2023-05-09T00:46:59.641Z,500.00
2023-05-09T00:47:59.782Z,501.00
2023-05-09T00:48:59.712Z,502.00
2023-05-09T00:49:59.754Z,500.00
2023-05-09T00:50:59.827Z,501.00
2023-05-09T00:51:59.830Z,502.00
2023-05-09T00:52:59.877Z,502.00
2023-05-09T00:53:59.919Z,500.00
2023-05-09T00:54:59.968Z,502.00
2023-05-09T00:56:00.026Z,500.00
2023-05-09T00:57:00.058Z,502.00
2023-05-09T00:58:00.150Z,502.00
2023-05-09T00:59:00.296Z,503.00
2023-05-09T01:00:00.224Z,501.00
2023-05-09T01:01:00.281Z,502.00
2023-05-09T01:02:00.310Z,501.00
2023-05-09T01:03:00.454Z,503.00
2023-05-09T01:04:00.387Z,502.00
2023-05-09T01:05:00.451Z,500.00
2023-05-09T01:06:00.486Z,501.00
2023-05-09T01:07:00.536Z,504.00
2023-05-09T01:08:00.588Z,504.00
2023-05-09T01:09:00.640Z,501.00
2023-05-09T01:10:00.677Z,501.00
2023-05-09T01:11:00.733Z,502.00
2023-05-09T01:12:00.781Z,503.00
2023-05-09T01:13:00.879Z,501.00
2023-05-09T01:14:00.886Z,501.00
2023-05-09T01:15:01.071Z,501.00
2023-05-09T01:16:01.010Z,503.00
2023-05-09T01:17:01.035Z,500.00
2023-05-09T01:18:01.116Z,502.00
2023-05-09T01:19:01.160Z,502.00
2023-05-09T01:20:01.210Z,500.00
2023-05-09T01:21:01.231Z,504.00
2023-05-09T01:22:01.273Z,502.00
2023-05-09T01:23:01.331Z,503.00
2023-05-09T01:24:01.365Z,502.00
2023-05-09T01:25:01.426Z,500.00
2023-05-09T01:26:01.473Z,501.00
2023-05-09T01:27:01.521Z,503.00
2023-05-09T01:28:01.559Z,500.00
2023-05-09T01:29:01.616Z,502.00
2023-05-09T01:30:01.662Z,502.00
2023-05-09T01:31:01.846Z,502.00
2023-05-09T01:32:01.758Z,504.00
2023-05-09T01:33:01.864Z,505.00
2023-05-09T01:34:01.850Z,502.00
2023-05-09T01:35:01.893Z,502.00
2023-05-09T01:36:01.930Z,500.00
2023-05-09T01:37:01.983Z,502.00
2023-05-09T01:38:02.017Z,503.00
2023-05-09T01:39:02.081Z,503.00
2023-05-09T01:40:02.130Z,504.00
2023-05-09T01:41:02.195Z,503.00
2023-05-09T01:42:02.232Z,504.00
2023-05-09T01:43:02.289Z,502.00
2023-05-09T01:44:02.389Z,506.00
2023-05-09T01:45:02.391Z,501.00
2023-05-09T01:46:02.464Z,503.00
2023-05-09T01:47:02.636Z,503.00
2023-05-09T01:48:02.599Z,506.00
2023-05-09T01:49:02.596Z,501.00
2023-05-09T01:50:02.651Z,502.00
2023-05-09T01:51:02.692Z,503.00
2023-05-09T01:52:02.760Z,500.00
2023-05-09T01:53:02.803Z,503.00
2023-05-09T01:54:02.854Z,502.00
2023-05-09T01:55:02.909Z,503.00
2023-05-09T01:56:02.956Z,502.00
2023-05-09T01:57:03.005Z,507.00
2023-05-09T01:58:03.060Z,504.00
2023-05-09T01:59:03.112Z,502.00
2023-05-09T02:00:03.166Z,504.00
2023-05-09T02:01:03.378Z,507.00
2023-05-09T02:02:03.385Z,503.00
2023-05-09T02:03:03.470Z,507.00
2023-05-09T02:04:03.351Z,503.00
2023-05-09T02:05:03.399Z,503.00
2023-05-09T02:06:03.449Z,502.00
2023-05-09T02:07:03.507Z,504.00
2023-05-09T02:08:03.559Z,500.00
2023-05-09T02:09:03.640Z,506.00
2023-05-09T02:10:03.675Z,504.00
2023-05-09T02:11:03.721Z,503.00
2023-05-09T02:12:03.761Z,503.00
2023-05-09T02:13:03.860Z,504.00
2023-05-09T02:14:03.867Z,502.00
2023-05-09T02:15:03.920Z,504.00
2023-05-09T02:16:03.964Z,504.00
2023-05-09T02:17:04.067Z,501.00
2023-05-09T02:18:04.092Z,505.00
2023-05-09T02:19:04.246Z,505.00
2023-05-09T02:20:04.168Z,505.00
2023-05-09T02:21:04.259Z,503.00
2023-05-09T02:22:04.267Z,507.00
2023-05-09T02:23:04.344Z,506.00
2023-05-09T02:24:04.363Z,503.00
2023-05-09T02:25:04.410Z,506.00
2023-05-09T02:26:04.462Z,500.00
2023-05-09T02:27:04.574Z,503.00
2023-05-09T02:28:04.592Z,504.00
2023-05-09T02:29:04.629Z,500.00
2023-05-09T02:30:04.661Z,500.00
2023-05-09T02:31:04.713Z,502.00
2023-05-09T02:32:04.781Z,506.00
2023-05-09T02:33:04.928Z,507.00
2023-05-09T02:34:04.873Z,506.00
2023-05-09T02:35:05.044Z,504.00
2023-05-09T02:36:04.967Z,503.00
2023-05-09T02:37:05.026Z,501.00
2023-05-09T02:38:05.068Z,500.00
2023-05-09T02:39:05.120Z,500.00
2023-05-09T02:40:05.168Z,502.00
2023-05-09T02:41:05.217Z,503.00
2023-05-09T02:42:05.278Z,500.00
2023-05-09T02:43:05.315Z,501.00
2023-05-09T02:44:05.449Z,504.00
2023-05-09T02:45:05.421Z,502.00
2023-05-09T02:46:05.518Z,502.00
2023-05-09T02:47:05.534Z,503.00
2023-05-09T02:48:08.342Z,503.00
2023-05-09T02:49:05.567Z,504.00
2023-05-09T02:50:05.578Z,504.00
2023-05-09T02:51:05.691Z,500.00
2023-05-09T02:52:05.554Z,502.00
2023-05-09T02:53:05.580Z,503.00
2023-05-09T02:54:05.612Z,500.00
2023-05-09T02:55:05.544Z,502.00
2023-05-09T02:56:05.530Z,501.00
2023-05-09T02:57:05.530Z,503.00
2023-05-09T02:58:12.911Z,500.00
2023-05-09T02:59:05.515Z,501.00
2023-05-09T03:00:05.503Z,503.00
2023-05-09T03:01:05.535Z,502.00
2023-05-09T03:02:05.491Z,506.00
2023-05-09T03:03:05.545Z,507.00
2023-05-09T03:04:05.456Z,504.00
2023-05-09T03:05:05.454Z,502.00
2023-05-09T03:06:05.456Z,505.00
2023-05-09T03:07:05.468Z,503.00
2023-05-09T03:08:05.445Z,500.00
2023-05-09T03:09:05.433Z,503.00
2023-05-09T03:10:05.432Z,504.00
2023-05-09T03:11:05.420Z,502.00
2023-05-09T03:12:05.421Z,505.00
2023-05-09T03:13:05.466Z,505.00
2023-05-09T03:14:05.422Z,504.00
2023-05-09T03:15:05.398Z,504.00
2023-05-09T03:16:05.443Z,503.00
2023-05-09T03:17:05.400Z,502.00
2023-05-09T03:18:05.445Z,503.00
2023-05-09T03:19:05.383Z,504.00
2023-05-09T03:20:05.365Z,500.00
2023-05-09T03:21:05.364Z,505.00
2023-05-09T03:22:05.346Z,505.00
2023-05-09T03:23:05.484Z,504.00
2023-05-09T03:24:05.366Z,503.00
2023-05-09T03:25:05.371Z,504.00
2023-05-09T03:26:05.421Z,502.00
2023-05-09T03:27:05.483Z,503.00
2023-05-09T03:28:05.536Z,504.00
2023-05-09T03:29:05.597Z,501.00
2023-05-09T03:30:05.656Z,502.00
2023-05-09T03:31:05.772Z,503.00
2023-05-09T03:32:05.819Z,505.00
2023-05-09T03:33:05.862Z,505.00
2023-05-09T03:34:05.870Z,503.00
2023-05-09T03:35:05.932Z,507.00
2023-05-09T03:36:05.995Z,505.00
2023-05-09T03:37:06.037Z,504.00
2023-05-09T03:38:06.059Z,504.00
2023-05-09T03:39:06.299Z,502.00
2023-05-09T03:40:06.102Z,505.00
2023-05-09T03:41:06.131Z,508.00
2023-05-09T03:42:06.160Z,502.00
2023-05-09T03:43:06.188Z,502.00
2023-05-09T03:44:06.280Z,500.00
2023-05-09T03:45:06.325Z,504.00
2023-05-09T03:46:06.308Z,506.00
2023-05-09T03:47:06.516Z,503.00
2023-05-09T03:48:06.414Z,503.00
2023-05-09T03:49:06.340Z,503.00
2023-05-09T03:50:06.377Z,503.00
2023-05-09T03:51:06.455Z,502.00
2023-05-09T03:52:06.397Z,500.00
2023-05-09T03:53:06.428Z,506.00
2023-05-09T03:54:06.510Z,504.00
2023-05-09T03:55:06.612Z,505.00
2023-05-09T03:56:06.518Z,501.00
2023-05-09T03:57:06.546Z,503.00
2023-05-09T03:58:06.552Z,504.00
2023-05-09T03:59:06.579Z,506.00
2023-05-09T04:00:06.630Z,506.00
2023-05-09T04:01:06.616Z,506.00
2023-05-09T04:02:06.714Z,502.00
2023-05-09T04:03:06.710Z,507.00
2023-05-09T04:04:06.764Z,505.00
2023-05-09T04:05:06.704Z,506.00
2023-05-09T04:06:06.736Z,503.00
2023-05-09T04:07:06.748Z,504.00
2023-05-09T04:08:06.773Z,503.00
2023-05-09T04:09:06.800Z,503.00
2023-05-09T04:10:06.824Z,503.00
2023-05-09T04:11:06.975Z,505.00
2023-05-09T04:12:06.867Z,502.00
2023-05-09T04:13:06.937Z,503.00
2023-05-09T04:14:06.986Z,502.00
2023-05-09T04:15:06.952Z,502.00
2023-05-09T04:16:06.992Z,502.00
2023-05-09T04:17:07.026Z,502.00
2023-05-09T04:18:07.038Z,503.00
2023-05-09T04:19:07.050Z,503.00
2023-05-09T04:20:07.073Z,500.00
2023-05-09T04:21:07.089Z,504.00
2023-05-09T04:22:07.130Z,504.00
2023-05-09T04:23:07.151Z,507.00
2023-05-09T04:24:07.160Z,502.00
2023-05-09T04:25:07.190Z,503.00
2023-05-09T04:26:07.201Z,500.00
2023-05-09T04:27:07.342Z,506.00
2023-05-09T04:28:07.248Z,502.00
2023-05-09T04:29:07.269Z,504.00
2023-05-09T04:30:07.305Z,504.00
2023-05-09T04:31:07.413Z,503.00
2023-05-09T04:32:07.399Z,503.00
2023-05-09T04:33:07.411Z,504.00
2023-05-09T04:34:07.404Z,507.00
2023-05-09T04:35:07.419Z,503.00
2023-05-09T04:36:07.443Z,505.00
2023-05-09T04:37:07.464Z,505.00
2023-05-09T04:38:07.497Z,504.00
2023-05-09T04:39:07.583Z,503.00
2023-05-09T04:40:07.542Z,502.00
2023-05-09T04:41:07.573Z,504.00
2023-05-09T04:42:07.636Z,506.00
2023-05-09T04:43:07.754Z,505.00
2023-05-09T04:44:07.656Z,502.00
2023-05-09T04:45:07.676Z,502.00
2023-05-09T04:46:07.787Z,502.00
2023-05-09T04:47:07.723Z,505.00
2023-05-09T04:48:07.905Z,505.00
2023-05-09T04:49:07.770Z,501.00
2023-05-09T04:50:07.799Z,502.00
2023-05-09T04:51:07.828Z,501.00
2023-05-09T04:52:07.842Z,503.00
2023-05-09T04:53:07.870Z,500.00
2023-05-09T04:54:07.888Z,500.00
2023-05-09T04:55:07.920Z,505.00
2023-05-09T04:56:07.944Z,502.00
2023-05-09T04:57:17.300Z,503.00
2023-05-09T04:58:07.968Z,503.00
2023-05-09T04:59:08.134Z,505.00
2023-05-09T05:00:08.002Z,504.00
2023-05-09T05:01:07.978Z,504.00
2023-05-09T05:02:08.064Z,507.00
2023-05-09T05:03:08.012Z,505.00
2023-05-09T05:04:08.111Z,504.00
2023-05-09T05:05:12.082Z,503.00
2023-05-09T05:06:07.960Z,504.00
2023-05-09T05:07:07.955Z,505.00
2023-05-09T05:08:07.965Z,506.00
2023-05-09T05:09:07.945Z,507.00
2023-05-09T05:10:07.949Z,506.00
2023-05-09T05:11:07.927Z,504.00
2023-05-09T05:12:09.264Z,501.00
2023-05-09T05:13:07.982Z,501.00
2023-05-09T05:14:07.917Z,502.00
2023-05-09T05:15:08.074Z,502.00
2023-05-09T05:16:07.972Z,502.00
2023-05-09T05:17:07.901Z,501.00
2023-05-09T05:18:07.939Z,501.00
2023-05-09T05:19:08.048Z,502.00
2023-05-09T05:20:07.887Z,504.00
2023-05-09T05:21:07.899Z,501.00
2023-05-09T05:22:07.885Z,505.00
2023-05-09T05:23:08.071Z,500.00
2023-05-09T05:24:07.889Z,505.00
2023-05-09T05:25:07.879Z,503.00
2023-05-09T05:26:07.883Z,505.00
2023-05-09T05:27:08.542Z,505.00
2023-05-09T05:28:07.893Z,500.00
2023-05-09T05:29:07.891Z,500.00
2023-05-09T05:30:07.898Z,507.00
2023-05-09T05:31:08.039Z,503.00
2023-05-09T05:32:08.051Z,502.00
2023-05-09T05:33:07.996Z,504.00
2023-05-09T05:34:07.886Z,504.00
2023-05-09T05:35:07.913Z,503.00
2023-05-09T05:36:07.893Z,503.00
2023-05-09T05:37:07.892Z,504.00
2023-05-09T05:38:08.051Z,502.00
2023-05-09T05:39:07.869Z,503.00
2023-05-09T05:40:07.881Z,510.00
2023-05-09T05:41:07.861Z,522.00
2023-05-09T05:42:07.849Z,522.00
2023-05-09T05:43:08.053Z,517.00
2023-05-09T05:44:07.860Z,510.00
2023-05-09T05:45:07.855Z,511.00
2023-05-09T05:46:07.894Z,508.00
2023-05-09T05:47:11.252Z,515.00
2023-05-09T05:48:08.122Z,515.00
2023-05-09T05:49:07.858Z,508.00
2023-05-09T05:50:07.843Z,510.00
2023-05-09T05:51:07.848Z,509.00
2023-05-09T05:52:07.828Z,509.00
2023-05-09T12:42:04.380Z,500.00
2023-05-09T12:43:05.242Z,500.00
2023-05-09T12:44:05.242Z,500.00
2023-05-09T12:45:05.468Z,500.00
2023-05-09T12:46:05.248Z,500.00
2023-05-09T12:47:05.326Z,497.00
2023-05-09T12:48:05.314Z,482.00
2023-05-09T12:49:05.230Z,499.00
2023-05-09T12:50:05.469Z,500.00
2023-05-09T12:51:05.212Z,513.00
2023-05-09T12:52:08.394Z,505.00
2023-05-09T12:53:05.316Z,507.00
2023-05-09T12:54:05.410Z,517.00
2023-05-09T12:55:05.445Z,550.00
2023-05-09T12:56:05.498Z,598.00
2023-05-09T12:57:05.559Z,685.00
2023-05-09T12:58:05.655Z,666.00
2023-05-09T12:59:05.679Z,666.00
2023-05-09T13:00:05.999Z,664.00
2023-05-09T13:01:05.761Z,763.00
2023-05-09T13:02:05.865Z,791.00
2023-05-09T13:03:05.937Z,821.00
2023-05-09T13:04:05.882Z,802.00
2023-05-09T13:05:05.913Z,642.00
2023-05-09T13:06:05.920Z,628.00
2023-05-09T13:07:05.971Z,615.00
2023-05-09T13:08:06.025Z,582.00
2023-05-09T13:09:06.352Z,582.00
2023-05-09T13:10:06.147Z,545.00
2023-05-09T13:11:15.566Z,531.00
2023-05-09T13:12:07.451Z,531.00
2023-05-09T13:13:09.570Z,521.00
2023-05-09T13:14:06.185Z,516.00
2023-05-09T13:15:06.543Z,494.00
2023-05-09T13:16:08.187Z,479.00
2023-05-09T13:17:06.259Z,531.00
2023-05-09T13:18:06.198Z,525.00
2023-05-09T13:19:06.133Z,477.00
2023-05-09T13:20:06.451Z,499.00
2023-05-09T13:21:06.155Z,485.00
2023-05-09T13:22:06.115Z,503.00
2023-05-09T13:23:06.113Z,505.00
2023-05-09T13:24:06.101Z,500.00
2023-05-09T13:25:06.169Z,498.00
2023-05-09T13:26:06.496Z,509.00
2023-05-09T13:27:06.098Z,504.00
2023-05-09T13:28:06.522Z,527.00
2023-05-09T13:29:06.212Z,516.00
2023-05-09T13:30:06.056Z,506.00
2023-05-09T13:31:06.530Z,506.00
2023-05-09T13:32:06.026Z,519.00
2023-05-09T13:33:16.580Z,524.00
2023-05-09T13:34:06.004Z,525.00
2023-05-09T13:35:05.993Z,527.00
2023-05-09T13:36:06.471Z,531.00
2023-05-09T13:37:06.005Z,543.00
2023-05-09T13:38:06.456Z,579.00
2023-05-09T13:39:05.970Z,587.00
2023-05-09T13:40:05.970Z,547.00
2023-05-09T13:41:05.973Z,589.00
2023-05-09T13:42:05.942Z,666.00
2023-05-09T13:43:05.945Z,838.00
2023-05-09T13:44:05.931Z,909.00
2023-05-09T13:45:06.047Z,974.00
2023-05-09T13:46:05.966Z,1035.00
2023-05-09T13:47:05.916Z,1026.00
2023-05-09T13:48:06.052Z,1057.00
2023-05-09T13:49:05.904Z,1069.00
2023-05-09T13:50:05.902Z,1106.00
2023-05-09T13:51:05.896Z,1137.00
2023-05-09T13:52:05.902Z,1170.00
2023-05-09T13:53:05.919Z,1116.00
2023-05-09T13:54:05.930Z,1118.00
2023-05-09T13:55:05.895Z,1067.00
2023-05-09T13:56:06.016Z,1057.00
2023-05-09T13:57:05.906Z,1026.00
2023-05-09T13:58:05.988Z,972.00
2023-05-09T13:59:05.892Z,999.00
2023-05-09T14:00:05.890Z,1012.00
2023-05-09T14:01:06.082Z,1032.00
2023-05-09T14:02:05.951Z,982.00
2023-05-09T14:03:06.051Z,960.00
2023-05-09T14:04:05.968Z,997.00
2023-05-09T14:05:05.897Z,1028.00
2023-05-09T14:06:05.902Z,1036.00
2023-05-09T14:07:05.896Z,1087.00
2023-05-09T14:08:05.892Z,1095.00
2023-05-09T14:09:05.891Z,1191.00
2023-05-09T14:10:16.214Z,1251.00
2023-05-09T14:11:05.982Z,1253.00
2023-05-09T14:12:05.890Z,1267.00
2023-05-09T14:13:05.955Z,1289.00
2023-05-09T14:14:05.896Z,1321.00
2023-05-09T14:15:05.903Z,1366.00
2023-05-09T14:16:05.965Z,1369.00
2023-05-09T14:17:06.057Z,1416.00
2023-05-09T14:18:05.955Z,1433.00
2023-05-09T14:19:05.931Z,1467.00
2023-05-09T14:20:05.931Z,1494.00
2023-05-09T14:21:05.936Z,1568.00
2023-05-09T14:22:05.932Z,1616.00
2023-05-09T14:23:05.930Z,1635.00
2023-05-09T14:24:05.934Z,1651.00
2023-05-09T14:25:05.948Z,1678.00
2023-05-09T14:26:05.957Z,1688.00
2023-05-09T14:27:05.959Z,1675.00
2023-05-09T14:28:05.963Z,1688.00
2023-05-09T14:29:05.975Z,1697.00
2023-05-09T14:30:06.000Z,1670.00
2023-05-09T14:31:06.021Z,1627.00
2023-05-09T14:32:05.992Z,1623.00
2023-05-09T14:33:06.117Z,1600.00
2023-05-09T14:34:06.004Z,1559.00
2023-05-09T14:35:06.054Z,1521.00
2023-05-09T14:36:06.001Z,1511.00
2023-05-09T14:37:05.997Z,1524.00
2023-05-09T14:38:06.001Z,1528.00
2023-05-09T14:39:06.010Z,1514.00
2023-05-09T14:40:06.011Z,1480.00
2023-05-09T14:41:06.021Z,1444.00
2023-05-09T14:42:06.020Z,1443.00
2023-05-09T14:43:06.021Z,1424.00
2023-05-09T14:44:06.035Z,1425.00
2023-05-09T14:45:06.046Z,1424.00
2023-05-09T14:46:06.054Z,1429.00
2023-05-09T14:47:06.185Z,1414.00
2023-05-09T14:48:06.125Z,1399.00
2023-05-09T14:49:06.221Z,1385.00
2023-05-09T14:50:06.091Z,1386.00
2023-05-09T14:51:06.098Z,1405.00
2023-05-09T14:52:06.112Z,1364.00
2023-05-09T14:53:06.112Z,1341.00
2023-05-09T14:54:06.127Z,1355.00
2023-05-09T14:55:06.134Z,1345.00
2023-05-09T14:56:06.138Z,1289.00
2023-05-09T14:57:06.152Z,1303.00
2023-05-09T14:58:06.167Z,1270.00
2023-05-09T14:59:06.164Z,1307.00
2023-05-09T15:00:19.743Z,1251.00
2023-05-09T15:01:06.208Z,1251.00
2023-05-09T15:02:06.210Z,1252.00
2023-05-09T15:03:06.260Z,1259.00
2023-05-09T15:04:06.233Z,1228.00
2023-05-09T15:05:06.360Z,1223.00
2023-05-09T15:06:06.251Z,1230.00
2023-05-09T15:07:06.251Z,1203.00
2023-05-09T15:08:06.274Z,1187.00
2023-05-09T15:09:06.286Z,1191.00
2023-05-09T15:10:06.515Z,1196.00
2023-05-09T15:11:06.304Z,1181.00
2023-05-09T15:12:06.330Z,1225.00
2023-05-09T15:13:06.377Z,1183.00
2023-05-09T15:14:06.344Z,1191.00
2023-05-09T15:15:06.360Z,1191.00
2023-05-09T15:16:06.397Z,1176.00
2023-05-09T15:17:06.423Z,1178.00
2023-05-09T15:18:06.390Z,1196.00
2023-05-09T15:19:06.396Z,1203.00
2023-05-09T15:20:06.412Z,1182.00
2023-05-09T15:21:06.558Z,1198.00
2023-05-09T15:22:06.430Z,1180.00
2023-05-09T15:23:06.465Z,1210.00
2023-05-09T15:24:06.445Z,1221.00
2023-05-09T15:25:06.495Z,1217.00
2023-05-09T15:26:06.468Z,1231.00
2023-05-09T15:27:06.470Z,1223.00
2023-05-09T15:28:06.486Z,1238.00
2023-05-09T15:29:06.505Z,1185.00
2023-05-09T15:30:06.517Z,1216.00
2023-05-09T15:31:06.629Z,1242.00
2023-05-09T15:32:06.551Z,1218.00
2023-05-09T15:33:06.601Z,1249.00
2023-05-09T15:34:06.562Z,1267.00
2023-05-09T15:35:06.585Z,1240.00
2023-05-09T15:36:06.583Z,1256.00
2023-05-09T15:37:06.721Z,1274.00
2023-05-09T15:38:06.600Z,1249.00
2023-05-09T15:39:06.601Z,1262.00
2023-05-09T15:40:06.640Z,1252.00
2023-05-09T15:41:06.637Z,1255.00
2023-05-09T15:42:06.662Z,1260.00
2023-05-09T15:43:08.257Z,1264.00
2023-05-09T15:44:06.724Z,1286.00
2023-05-09T15:45:06.747Z,1291.00
2023-05-09T15:46:06.763Z,1303.00
2023-05-09T15:47:06.754Z,1260.00
2023-05-09T15:48:06.829Z,1278.00
2023-05-09T15:49:06.770Z,1262.00
2023-05-09T15:50:06.787Z,1269.00
2023-05-09T15:51:06.812Z,1272.00
2023-05-09T15:52:06.804Z,1297.00
2023-05-09T15:53:07.000Z,1276.00
2023-05-09T15:54:06.829Z,1288.00
2023-05-09T15:55:06.987Z,1299.00
2023-05-09T15:56:06.843Z,1315.00
2023-05-09T15:57:06.870Z,1309.00
2023-05-09T15:58:06.860Z,1302.00
2023-05-09T15:59:06.882Z,1311.00
2023-05-09T16:00:06.896Z,1337.00
2023-05-09T16:01:06.884Z,1313.00
2023-05-09T16:02:07.010Z,1317.00
2023-05-09T16:03:06.944Z,1348.00
2023-05-09T16:04:06.925Z,1334.00
2023-05-09T16:05:06.921Z,1312.00
2023-05-09T16:06:06.943Z,1311.00
2023-05-09T16:07:06.949Z,1313.00
2023-05-09T16:08:06.960Z,1315.00
2023-05-09T16:09:07.143Z,1339.00
2023-05-09T16:10:06.984Z,1339.00
2023-05-09T16:11:07.000Z,1334.00
2023-05-09T16:12:07.004Z,1322.00
2023-05-09T16:13:07.039Z,1335.00
2023-05-09T16:14:07.098Z,1358.00
2023-05-09T16:15:07.040Z,1343.00
2023-05-09T16:16:07.100Z,1344.00
2023-05-09T16:17:07.076Z,1370.00
2023-05-09T16:18:07.096Z,1357.00
2023-05-09T16:19:07.109Z,1367.00
2023-05-09T16:20:07.143Z,1358.00
2023-05-09T16:21:07.222Z,1373.00
2023-05-09T16:22:07.263Z,1358.00
2023-05-09T16:23:07.320Z,1372.00
2023-05-09T16:24:07.379Z,1388.00
2023-05-09T16:25:07.581Z,1388.00
2023-05-09T16:26:08.031Z,1383.00
2023-05-09T16:27:07.597Z,1369.00
2023-05-09T16:28:07.643Z,1378.00
2023-05-09T16:29:07.715Z,1389.00
2023-05-09T16:30:07.798Z,1392.00
2023-05-09T16:31:07.911Z,1378.00
2023-05-09T16:32:07.996Z,1393.00
2023-05-09T16:33:08.036Z,1390.00
2023-05-09T16:34:08.098Z,1376.00
2023-05-09T16:35:08.187Z,1390.00
2023-05-09T16:36:08.212Z,1402.00
2023-05-09T16:37:08.292Z,1397.00
2023-05-09T16:38:08.348Z,1407.00
2023-05-09T16:39:08.418Z,1402.00
2023-05-09T16:40:08.490Z,1406.00
2023-05-09T16:41:08.694Z,1409.00
2023-05-09T16:42:08.649Z,1411.00
2023-05-09T16:43:08.710Z,1407.00
2023-05-09T16:44:08.787Z,1406.00
2023-05-09T16:45:08.847Z,1415.00
2023-05-09T16:46:08.954Z,1415.00
2023-05-09T16:47:09.029Z,1426.00
2023-05-09T16:48:09.131Z,1434.00
2023-05-09T16:49:09.146Z,1434.00
2023-05-09T16:50:09.219Z,1418.00
2023-05-09T16:51:09.294Z,1417.00
2023-05-09T16:52:09.390Z,1421.00
2023-05-09T16:53:09.401Z,1415.00
2023-05-09T16:54:09.439Z,1418.00
2023-05-09T16:55:09.490Z,1417.00
2023-05-09T16:56:09.564Z,1399.00
2023-05-09T16:57:09.790Z,1429.00
2023-05-09T16:58:09.641Z,1407.00
2023-05-09T16:59:11.300Z,1416.00
2023-05-09T17:00:09.853Z,1442.00
2023-05-09T17:01:09.947Z,1415.00
2023-05-09T17:02:09.902Z,1413.00
2023-05-09T17:03:09.990Z,1416.00
2023-05-09T17:04:10.077Z,1419.00
2023-05-09T17:05:10.111Z,1419.00
2023-05-09T17:06:10.186Z,1433.00
2023-05-09T17:07:10.250Z,1422.00
2023-05-09T17:08:10.330Z,1431.00
2023-05-09T17:09:10.411Z,1428.00
2023-05-09T17:10:10.482Z,1421.00
2023-05-09T17:11:10.559Z,1421.00
2023-05-09T17:12:10.684Z,1423.00
2023-05-09T17:13:10.851Z,1414.00
2023-05-09T17:14:10.785Z,1437.00
2023-05-09T17:15:10.857Z,1418.00
2023-05-09T17:16:11.167Z,1441.00
2023-05-09T17:17:11.010Z,1441.00
2023-05-09T17:18:12.237Z,1418.00
2023-05-09T17:19:11.106Z,1438.00
2023-05-09T17:20:11.116Z,1453.00
2023-05-09T17:21:11.132Z,1434.00
2023-05-09T17:22:11.147Z,1444.00
2023-05-09T17:23:11.148Z,1443.00
2023-05-09T17:24:11.181Z,1429.00
2023-05-09T17:25:11.177Z,1425.00
2023-05-09T17:26:11.203Z,1440.00
2023-05-09T17:27:11.200Z,1439.00
2023-05-09T17:28:11.207Z,1452.00
2023-05-09T17:29:11.342Z,1442.00
2023-05-09T17:30:11.239Z,1441.00
2023-05-09T17:31:11.282Z,1429.00
2023-05-09T17:32:11.257Z,1438.00
2023-05-09T17:33:11.268Z,1427.00
2023-05-09T17:34:11.304Z,1443.00
2023-05-09T17:35:11.278Z,1449.00
2023-05-09T17:36:11.286Z,1452.00
2023-05-09T17:37:11.299Z,1432.00
2023-05-09T17:38:11.353Z,1453.00
2023-05-09T17:39:11.315Z,1423.00
2023-05-09T17:40:11.345Z,1432.00
2023-05-09T17:41:11.346Z,1442.00
2023-05-09T17:42:12.286Z,1457.00
2023-05-09T17:43:11.401Z,1440.00
2023-05-09T17:44:11.475Z,1441.00
2023-05-09T17:45:11.679Z,1459.00
2023-05-09T17:46:11.645Z,1452.00
2023-05-09T17:47:11.687Z,1450.00
2023-05-09T17:48:11.762Z,1443.00
2023-05-09T17:49:11.839Z,1441.00
2023-05-09T17:50:11.918Z,1438.00
2023-05-09T17:51:11.988Z,1461.00
2023-05-09T17:52:12.072Z,1440.00
2023-05-09T17:53:12.146Z,1445.00
2023-05-09T17:54:12.209Z,1457.00
2023-05-09T17:55:12.294Z,1466.00
2023-05-09T17:56:12.372Z,1434.00
2023-05-09T17:57:12.447Z,1445.00
2023-05-09T17:58:12.609Z,1464.00
2023-05-09T17:59:12.598Z,1444.00
2023-05-09T18:00:12.762Z,1451.00
2023-05-09T18:01:12.906Z,1460.00
2023-05-09T18:02:12.779Z,1464.00
2023-05-09T18:03:12.949Z,1451.00
2023-05-09T18:04:12.937Z,1450.00
2023-05-09T18:05:13.002Z,1463.00
2023-05-09T18:06:13.081Z,1454.00
2023-05-09T18:07:13.149Z,1450.00
2023-05-09T18:08:13.223Z,1446.00
2023-05-09T18:09:13.302Z,1449.00
2023-05-09T18:10:13.609Z,1450.00
2023-05-09T18:11:13.452Z,1457.00
2023-05-09T18:12:13.517Z,1463.00
2023-05-09T18:13:13.592Z,1455.00
2023-05-09T18:14:13.653Z,1449.00
2023-05-09T18:15:13.704Z,1457.00
2023-05-09T18:16:13.867Z,1467.00
2023-05-09T18:17:13.996Z,1433.00
2023-05-09T18:18:15.038Z,1441.00
2023-05-09T18:19:14.794Z,1441.00
2023-05-09T18:20:14.361Z,1455.00
2023-05-09T18:21:14.126Z,1469.00
2023-05-09T18:22:14.256Z,1465.00
2023-05-09T18:23:14.244Z,1469.00
2023-05-09T18:24:16.326Z,1452.00
2023-05-09T18:25:14.306Z,1466.00
2023-05-09T18:26:14.316Z,1459.00
2023-05-09T18:27:14.317Z,1472.00
2023-05-09T18:28:14.325Z,1444.00
2023-05-09T18:29:14.334Z,1453.00
2023-05-09T18:30:14.470Z,1458.00
2023-05-09T18:31:14.384Z,1466.00
2023-05-09T18:32:14.389Z,1455.00
2023-05-09T18:33:14.491Z,1451.00
2023-05-09T18:34:14.399Z,1444.00
2023-05-09T18:35:14.383Z,1447.00
2023-05-09T18:36:14.417Z,1451.00
2023-05-09T18:37:14.426Z,1459.00
2023-05-09T18:38:14.409Z,1462.00
2023-05-09T18:39:14.413Z,1455.00
2023-05-09T18:40:14.761Z,1435.00
2023-05-09T18:41:14.434Z,1455.00
2023-05-09T18:42:16.177Z,1462.00
2023-05-09T18:43:14.451Z,1446.00
2023-05-09T18:44:14.458Z,1466.00
2023-05-09T18:45:14.468Z,1459.00
2023-05-09T18:46:14.485Z,1458.00
2023-05-09T18:47:14.525Z,1460.00
2023-05-09T18:48:14.493Z,1449.00
2023-05-09T18:49:14.626Z,1446.00
2023-05-09T18:50:14.829Z,1453.00
2023-05-09T18:51:14.537Z,1458.00
2023-05-09T18:52:14.527Z,1442.00
2023-05-09T18:53:14.534Z,1454.00
2023-05-09T18:54:14.538Z,1430.00
2023-05-09T18:55:14.552Z,1439.00
2023-05-09T18:56:14.568Z,1442.00
2023-05-09T18:57:14.565Z,1441.00
2023-05-09T18:58:14.578Z,1427.00
2023-05-09T18:59:14.584Z,1439.00
2023-05-09T19:00:14.867Z,1431.00
2023-05-09T19:01:14.635Z,1452.00
2023-05-09T19:02:14.617Z,1442.00
2023-05-09T19:03:14.625Z,1432.00
2023-05-09T19:04:14.668Z,1436.00
2023-05-09T19:05:14.762Z,1440.00
2023-05-09T19:06:14.643Z,1439.00
2023-05-09T19:07:14.648Z,1434.00
2023-05-09T19:08:14.657Z,1442.00